Time;durP1;ratioP1;P1;durP2;ratioP2;P2;SDS_P1;SDS_P2;PMS_P1;PMS_P2;Temp;Humidity;BMP_temperature;BMP_pressure;BME280_temperature;BME280_humidity;BME280_pressure;Samples;Min_cycle;Max_cycle;Signal;HPM_P1;HPM_P2
2022/02/21 00:01:32;;;;;;;6.97;2.63;;;5.10;99.90;;;;;;5079438;28;20488;-60
2022/02/21 00:03:59;;;;;;;3.97;1.70;;;5.10;99.90;;;;;;5080295;28;20453;-60
2022/02/21 00:06:28;;;;;;;3.50;1.97;;;5.10;99.90;;;;;;5078790;28;20465;-59
2022/02/21 00:08:55;;;;;;;5.23;3.03;;;5.20;99.90;;;;;;5078918;28;20457;-57
2022/02/21 00:11:23;;;;;;;3.00;1.90;;;5.20;99.90;;;;;;5078977;28;20514;-59
2022/02/21 00:13:53;;;;;;;4.03;2.17;;;5.20;99.90;;;;;;5078660;28;20493;-59
2022/02/21 00:16:20;;;;;;;3.90;2.57;;;5.20;99.90;;;;;;5078380;28;20465;-57
2022/02/21 00:18:47;;;;;;;4.70;1.97;;;5.20;99.90;;;;;;5078433;28;20514;-59
2022/02/21 00:21:14;;;;;;;5.10;2.23;;;5.30;99.90;;;;;;5095893;28;20546;-58
2022/02/21 00:23:41;;;;;;;7.80;2.50;;;5.40;99.90;;;;;;5098844;28;20911;-59
2022/02/21 00:26:08;;;;;;;4.77;2.37;;;5.40;99.90;;;;;;5098916;28;20460;-58
2022/02/21 00:28:38;;;;;;;5.27;2.57;;;5.40;99.90;;;;;;5098397;28;20505;-59
2022/02/21 00:31:05;;;;;;;3.13;1.70;;;5.50;99.90;;;;;;5099109;28;20884;-59
2022/02/21 00:33:32;;;;;;;3.03;1.93;;;5.50;99.90;;;;;;5083355;28;21011;-59
2022/02/21 00:35:59;;;;;;;6.73;2.30;;;5.40;99.90;;;;;;5078445;28;20465;-59
2022/02/21 00:38:29;;;;;;;7.17;2.50;;;5.50;99.90;;;;;;5077895;28;20461;-60
2022/02/21 00:40:56;;;;;;;4.53;2.90;;;5.60;99.90;;;;;;5078213;28;20559;-60
2022/02/21 00:43:23;;;;;;;7.60;3.20;;;5.60;74.60;;;;;;5078231;28;20468;-59
2022/02/21 00:45:55;;;;;;;6.03;3.10;;;5.60;1.00;;;;;;5078365;28;20523;-59
2022/02/21 00:48:22;;;;;;;8.67;3.57;;;5.60;1.00;;;;;;5077500;28;20461;-60
2022/02/21 00:50:49;;;;;;;6.97;2.73;;;5.60;99.90;;;;;;5077940;28;20465;-59
2022/02/21 00:53:16;;;;;;;6.53;2.50;;;5.60;1.00;;;;;;5077983;28;20583;-59
2022/02/21 00:55:43;;;;;;;6.93;2.73;;;5.60;1.00;;;;;;5078305;28;20956;-59
2022/02/21 00:58:10;;;;;;;6.63;3.07;;;5.70;99.90;;;;;;5078517;28;20522;-60
2022/02/21 01:00:38;;;;;;;10.80;3.27;;;5.60;99.90;;;;;;5077636;28;20468;-59
2022/02/21 01:03:07;;;;;;;8.77;2.90;;;5.60;1.00;;;;;;5077382;28;20506;-58
2022/02/21 01:05:34;;;;;;;7.03;2.70;;;5.70;92.70;;;;;;5078343;28;20526;-60
2022/02/21 01:08:01;;;;;;;8.33;2.80;;;5.60;99.90;;;;;;5078537;28;20500;-59
2022/02/21 01:10:30;;;;;;;8.20;2.37;;;5.60;99.90;;;;;;5078461;28;20461;-58
2022/02/21 01:12:57;;;;;;;7.30;3.17;;;5.40;99.90;;;;;;5077632;28;20492;-59
2022/02/21 01:15:24;;;;;;;4.93;2.40;;;5.20;62.10;;;;;;5077747;28;20824;-56
2022/02/21 01:17:51;;;;;;;6.00;2.50;;;5.20;99.90;;;;;;5077727;28;20870;-59
2022/02/21 01:20:19;;;;;;;6.23;2.57;;;5.10;27.00;;;;;;5087422;28;20459;-59
2022/02/21 01:22:46;;;;;;;3.67;1.90;;;5.00;1.00;;;;;;5097714;28;20434;-58
2022/02/21 01:25:14;;;;;;;3.43;1.90;;;4.90;1.00;;;;;;5097783;28;20468;-58
2022/02/21 01:27:41;;;;;;;5.77;2.30;;;4.80;1.00;;;;;;5098239;28;20461;-57
2022/02/21 01:30:13;;;;;;;6.37;2.03;;;4.70;1.00;;;;;;5097840;28;20439;-59
2022/02/21 01:32:40;;;;;;;4.20;2.00;;;4.70;1.00;;;;;;5097583;28;20468;-60
2022/02/21 01:35:08;;;;;;;3.90;2.37;;;4.70;1.00;;;;;;5097710;28;20654;-60
2022/02/21 01:37:39;;;;;;;8.40;2.47;;;4.70;1.00;;;;;;5097904;28;20830;-59
2022/02/21 01:40:07;;;;;;;4.50;2.77;;;4.70;1.00;;;;;;5097767;28;20471;-59
2022/02/21 01:42:34;;;;;;;5.37;2.43;;;4.70;19.70;;;;;;5097552;28;20500;-60
2022/02/21 01:45:01;;;;;;;7.63;2.50;;;4.70;99.90;;;;;;5097654;28;20456;-60
2022/02/21 01:47:28;;;;;;;6.20;2.57;;;4.80;99.90;;;;;;5097416;28;20435;-60
2022/02/21 01:49:55;;;;;;;10.57;2.90;;;4.80;99.90;;;;;;5097272;28;20898;-60
2022/02/21 01:52:22;;;;;;;9.67;2.30;;;4.80;99.90;;;;;;5096917;28;20529;-60
2022/02/21 01:54:51;;;;;;;7.90;3.47;;;4.90;1.00;;;;;;5097109;28;20545;-59
2022/02/21 01:57:19;;;;;;;6.13;2.00;;;4.90;1.00;;;;;;5097499;28;20897;-60
2022/02/21 01:59:46;;;;;;;5.87;2.63;;;4.90;1.00;;;;;;5097572;28;20492;-58
2022/02/21 02:02:13;;;;;;;8.77;3.10;;;4.90;99.90;;;;;;5097445;28;20467;-60
2022/02/21 02:04:40;;;;;;;10.13;2.87;;;4.90;99.90;;;;;;5097813;28;20517;-60
2022/02/21 02:07:07;;;;;;;9.23;2.73;;;4.90;99.90;;;;;;5097355;28;20817;-60
2022/02/21 02:09:37;;;;;;;13.80;3.07;;;4.90;72.10;;;;;;5097227;28;20918;-60
2022/02/21 02:12:11;;;;;;;8.30;2.70;;;4.90;49.80;;;;;;5097300;28;20460;-60
2022/02/21 02:14:39;;;;;;;12.13;3.93;;;4.80;23.00;;;;;;5096979;28;20492;-60
2022/02/21 02:17:08;;;;;;;7.80;2.90;;;4.80;1.00;;;;;;5097390;28;20739;-59
2022/02/21 02:19:36;;;;;;;14.03;3.20;;;4.70;1.00;;;;;;5093056;28;20450;-60
2022/02/21 02:22:13;;;;;;;7.87;2.83;;;4.70;1.00;;;;;;5077011;28;20469;-60
2022/02/21 02:24:41;;;;;;;11.10;4.03;;;4.60;1.00;;;;;;5076430;28;20473;-59
2022/02/21 02:27:09;;;;;;;12.33;3.03;;;4.60;1.00;;;;;;5076885;28;20501;-58
2022/02/21 02:29:37;;;;;;;15.33;4.10;;;4.60;1.00;;;;;;5079761;28;20495;-60
2022/02/21 02:32:05;;;;;;;8.07;3.00;;;4.50;1.00;;;;;;5080625;28;20522;-59
2022/02/21 02:34:35;;;;;;;13.70;3.10;;;4.50;1.00;;;;;;5080067;28;20980;-59
2022/02/21 02:37:02;;;;;;;10.47;3.47;;;4.40;1.00;;;;;;5080834;28;20468;-60
2022/02/21 02:39:31;;;;;;;9.60;3.43;;;4.50;1.00;;;;;;5080555;28;20511;-59
2022/02/21 02:41:58;;;;;;;19.20;3.90;;;4.40;1.00;;;;;;5080733;28;20499;-60
2022/02/21 02:44:25;;;;;;;11.93;3.63;;;4.40;1.00;;;;;;5079778;28;20908;-60
2022/02/21 02:46:52;;;;;;;12.57;3.93;;;4.40;1.00;;;;;;5080274;28;20461;-60
2022/02/21 02:49:19;;;;;;;17.33;3.80;;;4.40;1.00;;;;;;5080175;28;20465;-59
2022/02/21 02:51:46;;;;;;;10.80;2.97;;;4.50;1.00;;;;;;5080446;28;20768;-60
2022/02/21 02:54:14;;;;;;;8.00;3.30;;;4.50;1.00;;;;;;5080275;28;20493;-57
2022/02/21 02:56:45;;;;;;;11.93;3.97;;;4.50;1.00;;;;;;5079945;28;20465;-59
2022/02/21 02:59:12;;;;;;;10.00;3.10;;;4.50;1.00;;;;;;5079935;28;20538;-60
2022/02/21 03:01:40;;;;;;;13.07;3.20;;;4.40;1.00;;;;;;5080116;28;20465;-59
2022/02/21 03:04:08;;;;;;;12.30;3.60;;;4.40;1.00;;;;;;5080375;28;20489;-58
2022/02/21 03:06:36;;;;;;;12.30;3.40;;;4.40;1.00;;;;;;5079734;28;20515;-59
2022/02/21 03:09:04;;;;;;;15.70;4.40;;;4.50;1.00;;;;;;5079627;28;20461;-60
2022/02/21 03:11:31;;;;;;;12.87;4.00;;;4.50;1.00;;;;;;5079773;28;20461;-58
2022/02/21 03:14:00;;;;;;;7.93;2.90;;;4.50;1.00;;;;;;5080010;28;20511;-59
2022/02/21 03:16:27;;;;;;;9.77;3.70;;;4.50;1.00;;;;;;5079576;28;20556;-58
2022/02/21 03:18:54;;;;;;;10.90;4.60;;;4.50;1.00;;;;;;5079605;28;20466;-54
2022/02/21 03:21:21;;;;;;;14.57;2.60;;;4.40;1.00;;;;;;5079021;28;20454;-59
2022/02/21 03:23:48;;;;;;;7.03;2.60;;;4.20;1.00;;;;;;5079732;28;20461;-56
2022/02/21 03:26:16;;;;;;;7.20;2.07;;;3.90;1.00;;;;;;5079760;28;20900;-58
2022/02/21 03:28:43;;;;;;;4.10;2.00;;;3.60;1.00;;;;;;5079218;28;20465;-54
2022/02/21 03:31:12;;;;;;;7.80;2.60;;;3.50;1.00;;;;;;5079365;28;20465;-59
2022/02/21 03:33:39;;;;;;;4.83;2.70;;;3.30;1.00;;;;;;5079457;28;20535;-59
2022/02/21 03:36:06;;;;;;;7.00;2.80;;;3.20;1.00;;;;;;5079875;28;20761;-60
2022/02/21 03:38:33;;;;;;;8.07;1.80;;;3.10;1.00;;;;;;5080281;28;20793;-60
2022/02/21 03:41:01;;;;;;;7.77;2.30;;;2.80;1.00;;;;;;5080266;28;20469;-60
2022/02/21 03:43:28;;;;;;;14.33;2.77;;;2.80;68.50;;;;;;5081541;28;20523;-60
2022/02/21 03:45:55;;;;;;;8.20;2.80;;;2.70;99.90;;;;;;5082048;28;20468;-59
2022/02/21 03:48:26;;;;;;;8.77;2.50;;;2.70;1.00;;;;;;5081692;28;20465;-59
2022/02/21 03:50:53;;;;;;;10.23;2.73;;;2.70;99.90;;;;;;5078923;28;20791;-59
2022/02/21 03:53:20;;;;;;;5.80;2.90;;;2.70;1.00;;;;;;5078846;28;20460;-58
2022/02/21 03:55:48;;;;;;;6.87;2.60;;;2.70;1.00;;;;;;5079228;28;20542;-58
2022/02/21 03:58:18;;;;;;;6.83;2.50;;;2.80;1.00;;;;;;5079076;28;20542;-56
2022/02/21 04:00:46;;;;;;;5.83;2.87;;;2.80;1.00;;;;;;5079260;28;20511;-58
2022/02/21 04:03:13;;;;;;;8.33;2.70;;;2.90;1.00;;;;;;5078967;28;20776;-57
2022/02/21 04:05:42;;;;;;;6.03;2.70;;;2.90;1.00;;;;;;5078964;28;20457;-57
2022/02/21 04:08:09;;;;;;;7.40;2.80;;;2.90;1.00;;;;;;5078935;28;20470;-56
2022/02/21 04:10:36;;;;;;;10.80;3.20;;;2.90;1.00;;;;;;5078547;28;20771;-59
2022/02/21 04:13:03;;;;;;;11.53;3.60;;;3.00;1.00;;;;;;5078663;28;20468;-58
2022/02/21 04:15:30;;;;;;;11.73;3.20;;;3.00;1.00;;;;;;5078594;28;20500;-60
2022/02/21 04:17:57;;;;;;;11.07;3.57;;;3.10;1.00;;;;;;5078667;28;20435;-60
2022/02/21 04:20:26;;;;;;;10.60;2.83;;;3.10;99.90;;;;;;5077965;28;20461;-59
2022/02/21 04:22:55;;;;;;;7.70;4.00;;;3.20;99.90;;;;;;5078386;28;20539;-60
2022/02/21 04:25:22;;;;;;;5.87;2.60;;;3.20;64.40;;;;;;5078318;28;20464;-60
2022/02/21 04:27:51;;;;;;;6.77;2.60;;;3.20;99.90;;;;;;5078721;28;20461;-55
2022/02/21 04:30:21;;;;;;;8.30;2.60;;;3.10;99.90;;;;;;5078762;28;20935;-59
2022/02/21 04:32:48;;;;;;;7.83;3.20;;;3.00;99.90;;;;;;5078116;28;20461;-59
2022/02/21 04:35:17;;;;;;;7.63;3.10;;;3.00;99.90;;;;;;5078283;28;20499;-55
2022/02/21 04:37:45;;;;;;;9.53;3.53;;;3.00;99.90;;;;;;5078860;28;20462;-59
2022/02/21 04:40:15;;;;;;;8.63;3.03;;;3.00;99.90;;;;;;5078236;28;20964;-59
2022/02/21 04:42:42;;;;;;;10.97;2.50;;;3.00;99.90;;;;;;5078100;28;20515;-59
2022/02/21 04:45:10;;;;;;;11.33;4.00;;;3.00;3.10;;;;;;5078455;28;20947;-58
2022/02/21 04:47:38;;;;;;;5.63;2.77;;;3.10;8.50;;;;;;5078034;28;20519;-56
2022/02/21 04:50:06;;;;;;;4.80;2.87;;;3.10;1.00;;;;;;5077943;28;20468;-58
2022/02/21 04:52:34;;;;;;;7.40;3.30;;;3.20;1.00;;;;;;5077268;28;20465;-55
2022/02/21 04:55:01;;;;;;;3.90;2.40;;;3.20;1.00;;;;;;5078034;28;20494;-59
2022/02/21 04:57:29;;;;;;;4.97;2.60;;;3.20;1.00;;;;;;5077432;28;20514;-56
2022/02/21 04:59:57;;;;;;;5.40;2.60;;;3.00;1.00;;;;;;5077879;28;20481;-57
2022/02/21 05:02:24;;;;;;;4.30;2.73;;;2.80;1.00;;;;;;5073086;28;20874;-59
2022/02/21 05:04:52;;;;;;;6.80;2.30;;;2.60;32.10;;;;;;5057757;28;20508;-61
2022/02/21 05:07:19;;;;;;;7.70;3.17;;;2.50;99.90;;;;;;5069058;28;20584;-62
2022/02/21 05:09:46;;;;;;;8.60;2.90;;;2.20;1.00;;;;;;5078029;28;20507;-62
2022/02/21 05:12:13;;;;;;;6.17;3.20;;;2.10;1.00;;;;;;5065361;28;20557;-62
2022/02/21 05:14:41;;;;;;;5.20;2.77;;;2.00;1.00;;;;;;5066429;28;20493;-62
2022/02/21 05:17:08;;;;;;;11.97;3.20;;;2.00;24.10;;;;;;5059570;28;20824;-62
2022/02/21 05:19:35;;;;;;;9.53;3.47;;;2.00;1.00;;;;;;5065461;28;20455;-62
2022/02/21 05:22:02;;;;;;;12.27;3.90;;;2.10;60.60;;;;;;5097820;28;20769;-62
2022/02/21 05:24:30;;;;;;;11.87;3.50;;;2.10;99.90;;;;;;5078243;28;20738;-64
2022/02/21 05:26:57;;;;;;;6.63;3.40;;;2.10;99.90;;;;;;5076354;28;20507;-65
2022/02/21 05:29:24;;;;;;;8.00;3.03;;;2.20;55.30;;;;;;5057637;28;20825;-64
2022/02/21 05:31:52;;;;;;;15.97;3.57;;;2.30;1.00;;;;;;5058526;28;20466;-64
2022/02/21 05:34:19;;;;;;;10.13;3.00;;;2.20;31.10;;;;;;5076828;28;20529;-63
2022/02/21 05:36:46;;;;;;;11.30;3.60;;;2.20;1.00;;;;;;5073453;28;20974;-63
2022/02/21 05:39:13;;;;;;;9.40;3.40;;;2.20;1.00;;;;;;5077406;28;20814;-63
2022/02/21 05:41:40;;;;;;;11.10;3.57;;;2.20;1.00;;;;;;5075969;28;20535;-63
2022/02/21 05:44:08;;;;;;;9.30;3.70;;;2.20;1.00;;;;;;5076087;28;20499;-65
2022/02/21 05:46:35;;;;;;;10.87;3.50;;;2.30;99.90;;;;;;5076243;28;20457;-66
2022/02/21 05:49:04;;;;;;;12.13;4.10;;;2.30;99.90;;;;;;5076442;28;20552;-66
2022/02/21 05:51:31;;;;;;;14.40;4.67;;;2.30;1.00;;;;;;5074286;28;20441;-65
2022/02/21 05:53:58;;;;;;;16.77;4.23;;;2.40;1.00;;;;;;5076648;28;20454;-65
2022/02/21 05:56:25;;;;;;;5.20;2.90;;;2.40;99.90;;;;;;5076022;28;20449;-66
2022/02/21 05:58:52;;;;;;;6.10;3.20;;;2.50;1.00;;;;;;5076293;28;20477;-66
2022/02/21 06:01:19;;;;;;;7.97;2.90;;;2.50;99.90;;;;;;5076527;28;20875;-66
2022/02/21 06:03:46;;;;;;;9.77;3.30;;;2.40;99.90;;;;;;5078221;28;20932;-67
2022/02/21 06:06:15;;;;;;;11.50;4.47;;;2.40;1.00;;;;;;5080819;28;20449;-67
2022/02/21 06:08:43;;;;;;;9.10;3.50;;;2.40;1.00;;;;;;5080607;28;20902;-68
2022/02/21 06:11:10;;;;;;;14.43;3.53;;;2.40;18.10;;;;;;5081069;28;20920;-68
2022/02/21 06:13:37;;;;;;;11.33;3.17;;;2.40;2.80;;;;;;5080924;28;20886;-68
2022/02/21 06:16:05;;;;;;;6.73;2.70;;;2.40;99.90;;;;;;5080378;28;20543;-67
2022/02/21 06:18:32;;;;;;;4.73;2.70;;;2.30;99.90;;;;;;5080119;28;20515;-67
2022/02/21 06:21:00;;;;;;;5.47;4.10;;;2.20;99.90;;;;;;5082792;28;20460;-67
2022/02/21 06:23:28;;;;;;;6.63;2.60;;;2.20;99.90;;;;;;5079903;28;20799;-66
2022/02/21 06:25:55;;;;;;;6.63;3.10;;;2.20;1.00;;;;;;5079528;28;20487;-66
2022/02/21 06:28:24;;;;;;;6.47;2.87;;;2.20;1.00;;;;;;5075689;28;20500;-67
2022/02/21 06:30:52;;;;;;;9.63;3.37;;;2.10;1.00;;;;;;5078844;28;20555;-67
2022/02/21 06:33:19;;;;;;;5.27;2.40;;;2.20;1.00;;;;;;5079122;28;20572;-66
2022/02/21 06:35:46;;;;;;;4.23;2.37;;;2.10;1.00;;;;;;5079000;28;20527;-67
2022/02/21 06:38:13;;;;;;;4.90;2.00;;;2.00;99.90;;;;;;5079750;28;20530;-67
2022/02/21 06:40:42;;;;;;;4.60;2.27;;;2.00;1.00;;;;;;5079583;28;20531;-68
2022/02/21 06:43:09;;;;;;;4.80;2.83;;;2.00;1.00;;;;;;5080530;28;20555;-68
2022/02/21 06:45:37;;;;;;;5.80;2.10;;;1.90;1.00;;;;;;5080170;28;20555;-67
2022/02/21 06:48:05;;;;;;;6.40;2.70;;;1.90;99.90;;;;;;5079964;28;20545;-68
2022/02/21 06:50:32;;;;;;;4.63;2.60;;;1.90;99.90;;;;;;5079731;28;20535;-67
2022/02/21 06:52:59;;;;;;;5.43;2.50;;;1.90;67.10;;;;;;5079932;28;20556;-67
2022/02/21 06:55:26;;;;;;;5.50;2.97;;;1.90;1.00;;;;;;5079256;28;20497;-67
2022/02/21 06:57:55;;;;;;;4.97;2.53;;;1.90;99.90;;;;;;5077807;28;20465;-67
2022/02/21 07:00:22;;;;;;;8.07;2.80;;;2.00;1.00;;;;;;5076491;28;20461;-68
2022/02/21 07:02:49;;;;;;;9.37;2.90;;;2.00;98.80;;;;;;5077807;28;20472;-67
2022/02/21 07:05:16;;;;;;;6.70;2.20;;;2.00;81.00;;;;;;5078122;28;20508;-68
2022/02/21 07:07:43;;;;;;;7.13;3.37;;;2.00;99.90;;;;;;5077527;28;20869;-68
2022/02/21 07:10:11;;;;;;;11.27;4.37;;;2.00;1.00;;;;;;5078246;28;20813;-68
2022/02/21 07:12:39;;;;;;;6.57;2.90;;;2.00;1.00;;;;;;5078677;28;20798;-68
2022/02/21 07:15:08;;;;;;;12.37;4.80;;;1.90;99.90;;;;;;5077696;28;20542;-68
2022/02/21 07:17:40;;;;;;;9.07;4.50;;;2.00;1.00;;;;;;5078595;28;20461;-69
2022/02/21 07:20:12;;;;;;;10.53;3.30;;;2.00;1.00;;;;;;5078090;28;20552;-68
2022/02/21 07:22:40;;;;;;;8.00;4.33;;;2.00;1.00;;;;;;5078429;28;20864;-69
2022/02/21 07:25:12;;;;;;;13.53;3.67;;;2.10;1.00;;;;;;5078182;28;20548;-68
2022/02/21 07:27:43;;;;;;;13.00;3.93;;;2.10;1.00;;;;;;5078447;28;20906;-69
2022/02/21 07:30:16;;;;;;;12.07;4.50;;;2.20;99.90;;;;;;5076254;28;20468;-69
2022/02/21 07:32:45;;;;;;;7.70;3.10;;;2.30;1.00;;;;;;5074543;28;20515;-68
2022/02/21 07:35:13;;;;;;;10.70;4.50;;;2.30;1.00;;;;;;5077337;28;20485;-68
2022/02/21 07:37:41;;;;;;;13.00;3.80;;;2.40;99.90;;;;;;5077880;28;20499;-69
2022/02/21 07:40:10;;;;;;;15.73;4.43;;;2.40;99.90;;;;;;5077847;28;20958;-68
2022/02/21 07:42:39;;;;;;;14.87;4.17;;;2.40;99.90;;;;;;5077233;28;20462;-68
2022/02/21 07:45:09;;;;;;;16.23;6.03;;;2.50;1.00;;;;;;5077887;28;20811;-67
2022/02/21 07:47:44;;;;;;;11.50;3.70;;;2.60;1.00;;;;;;5078003;28;20465;-66
2022/02/21 07:50:12;;;;;;;9.27;4.20;;;2.70;99.90;;;;;;5076263;28;20487;-66
2022/02/21 07:52:39;;;;;;;8.10;4.57;;;2.90;99.90;;;;;;5076622;28;20519;-66
2022/02/21 07:55:07;;;;;;;10.77;4.20;;;2.90;99.90;;;;;;5076850;28;20489;-65
2022/02/21 07:57:34;;;;;;;16.00;3.80;;;3.00;26.20;;;;;;5077328;28;20527;-65
2022/02/21 08:00:01;;;;;;;8.17;3.20;;;3.00;1.00;;;;;;5035945;28;1189415;-64
2022/02/21 08:02:29;;;;;;;16.77;4.70;;;3.10;1.00;;;;;;5077829;28;20207;-65
2022/02/21 08:04:59;;;;;;;10.10;3.70;;;3.10;1.00;;;;;;5078109;28;20465;-64
2022/02/21 08:07:26;;;;;;;16.00;3.57;;;3.20;1.00;;;;;;5078089;28;20440;-64
2022/02/21 08:09:53;;;;;;;22.63;5.10;;;3.30;1.00;;;;;;5077857;28;20878;-64
2022/02/21 08:12:20;;;;;;;10.10;2.73;;;3.30;1.00;;;;;;5077593;28;20488;-64
2022/02/21 08:14:50;;;;;;;9.97;4.60;;;3.30;1.00;;;;;;5077641;28;20867;-64
2022/02/21 08:17:17;;;;;;;10.27;3.60;;;3.40;1.00;;;;;;5076844;28;20902;-63
2022/02/21 08:19:44;;;;;;;8.47;3.47;;;3.40;1.00;;;;;;5077439;28;20458;-62
2022/02/21 08:22:12;;;;;;;11.40;3.43;;;3.50;1.00;;;;;;5077838;28;20880;-61
2022/02/21 08:24:42;;;;;;;6.90;3.03;;;3.50;1.00;;;;;;5076964;28;20466;-61
2022/02/21 08:27:10;;;;;;;7.57;2.57;;;3.50;1.00;;;;;;5077086;28;20894;-61
2022/02/21 08:29:38;;;;;;;6.30;3.00;;;3.60;1.00;;;;;;5077556;28;20864;-61
2022/02/21 08:32:06;;;;;;;6.57;3.47;;;3.60;1.00;;;;;;5078039;28;20462;-61
2022/02/21 08:34:38;;;;;;;12.13;3.60;;;3.60;1.00;;;;;;5076816;28;20470;-59
2022/02/21 08:37:06;;;;;;;14.37;3.20;;;3.60;1.00;;;;;;5067933;28;20515;-60
2022/02/21 08:39:35;;;;;;;10.87;3.37;;;3.60;1.00;;;;;;5077673;28;20556;-59
2022/02/21 08:42:02;;;;;;;11.43;3.50;;;3.70;1.00;;;;;;5077372;28;20453;-60
2022/02/21 08:44:30;;;;;;;16.90;4.47;;;3.70;1.00;;;;;;5076789;28;20464;-56
2022/02/21 08:46:58;;;;;;;14.33;4.67;;;3.80;1.00;;;;;;5077318;28;20464;-60
2022/02/21 08:49:25;;;;;;;16.40;3.37;;;3.80;1.00;;;;;;5077076;28;20560;-60
2022/02/21 08:51:52;;;;;;;6.87;3.43;;;3.80;1.00;;;;;;5077875;28;20496;-59
2022/02/21 08:54:21;;;;;;;6.07;2.83;;;3.90;1.00;;;;;;5076571;28;20461;-59
2022/02/21 08:56:52;;;;;;;11.03;3.83;;;4.00;1.00;;;;;;5077502;28;20937;-59
2022/02/21 08:59:19;;;;;;;10.03;4.10;;;4.20;1.00;;;;;;5076953;28;20493;-60
2022/02/21 09:01:47;;;;;;;6.67;3.20;;;4.40;1.00;;;;;;5077885;28;20465;-59
2022/02/21 09:04:17;;;;;;;5.67;2.90;;;4.50;1.00;;;;;;5076514;28;20436;-59
2022/02/21 09:06:45;;;;;;;8.97;3.70;;;4.50;1.00;;;;;;5069014;28;20466;-61
2022/02/21 09:09:12;;;;;;;8.87;3.07;;;4.50;1.00;;;;;;5076440;28;20558;-57
2022/02/21 09:11:39;;;;;;;12.93;3.37;;;4.60;1.00;;;;;;5077515;28;20526;-62
2022/02/21 09:14:07;;;;;;;5.70;2.87;;;4.80;1.00;;;;;;5077340;28;20464;-62
2022/02/21 09:16:35;;;;;;;9.10;3.00;;;5.00;1.00;;;;;;5076501;28;20493;-62
2022/02/21 09:19:02;;;;;;;9.40;2.83;;;5.20;1.00;;;;;;5077029;28;20871;-63
2022/02/21 09:21:29;;;;;;;14.93;3.00;;;5.30;1.00;;;;;;5076395;28;20797;-63
2022/02/21 09:23:56;;;;;;;8.37;2.80;;;5.40;1.00;;;;;;5077156;28;20870;-63
2022/02/21 09:26:23;;;;;;;8.10;3.60;;;5.60;1.00;;;;;;5076650;28;20436;-63
2022/02/21 09:28:50;;;;;;;10.27;3.00;;;5.80;1.00;;;;;;5077002;28;20473;-64
2022/02/21 09:31:19;;;;;;;9.60;3.53;;;5.80;99.90;;;;;;5076507;28;20461;-63
2022/02/21 09:33:46;;;;;;;9.50;2.93;;;5.90;99.90;;;;;;5076341;28;20469;-64
2022/02/21 09:36:15;;;;;;;13.37;3.40;;;5.80;99.90;;;;;;5077458;28;20958;-65
2022/02/21 09:38:48;;;;;;;7.30;2.87;;;5.70;99.90;;;;;;5077197;28;20736;-64
2022/02/21 09:41:15;;;;;;;11.17;3.80;;;5.60;99.90;;;;;;5077318;28;20781;-64
2022/02/21 09:43:42;;;;;;;12.77;3.97;;;5.50;99.90;;;;;;5077251;28;20449;-65
2022/02/21 09:46:11;;;;;;;8.00;2.70;;;5.80;99.90;;;;;;5077159;28;20454;-64
2022/02/21 09:48:40;;;;;;;11.77;3.10;;;5.90;99.90;;;;;;5075411;28;20465;-64
2022/02/21 09:51:08;;;;;;;13.33;3.50;;;5.60;99.90;;;;;;5075553;28;20435;-64
2022/02/21 09:53:37;;;;;;;7.63;3.60;;;5.60;99.90;;;;;;5076621;28;20534;-64
2022/02/21 09:56:05;;;;;;;8.50;2.87;;;5.40;99.90;;;;;;5077097;28;20489;-64
2022/02/21 09:58:36;;;;;;;6.90;2.33;;;5.30;99.90;;;;;;5076226;28;20565;-64
2022/02/21 10:01:04;;;;;;;6.43;2.77;;;5.10;99.90;;;;;;5076917;28;20464;-64
2022/02/21 10:03:43;;;;;;;7.90;3.47;;;5.10;99.90;;;;;;5076280;28;20538;-64
2022/02/21 10:06:21;;;;;;;7.20;2.70;;;5.00;99.90;;;;;;5077807;28;20457;-64
2022/02/21 10:09:00;;;;;;;8.63;3.50;;;5.00;99.90;;;;;;5076618;28;20469;-64
2022/02/21 10:11:29;;;;;;;6.33;2.90;;;5.00;99.90;;;;;;5077050;28;20471;-64
2022/02/21 10:13:58;;;;;;;9.80;3.57;;;5.00;99.90;;;;;;5077344;28;20461;-64
2022/02/21 10:16:26;;;;;;;8.93;3.07;;;5.00;99.90;;;;;;5076133;28;20580;-64
2022/02/21 10:19:10;;;;;;;9.00;2.83;;;5.00;99.90;;;;;;5075491;28;20461;-64
2022/02/21 10:21:57;;;;;;;6.67;2.83;;;5.10;99.90;;;;;;5075934;28;20795;-64
2022/02/21 10:24:25;;;;;;;11.87;2.90;;;5.00;99.90;;;;;;5076660;28;20855;-64
2022/02/21 10:26:52;;;;;;;7.50;3.40;;;5.00;99.90;;;;;;5077008;28;20826;-64
2022/02/21 10:29:22;;;;;;;14.50;4.17;;;4.90;99.90;;;;;;5075666;28;20522;-64
2022/02/21 10:31:52;;;;;;;8.30;3.43;;;5.00;1.00;;;;;;5076400;28;20462;-64
2022/02/21 10:34:20;;;;;;;11.20;3.40;;;4.90;1.00;;;;;;5076480;28;20465;-64
2022/02/21 10:36:47;;;;;;;11.33;3.47;;;4.90;1.00;;;;;;5075062;28;20935;-63
2022/02/21 10:39:16;;;;;;;13.60;3.70;;;4.90;1.00;;;;;;5075095;28;20492;-64
2022/02/21 10:41:47;;;;;;;11.10;3.70;;;5.00;1.00;;;;;;5076222;28;20779;-64
2022/02/21 10:44:23;;;;;;;13.33;3.33;;;4.90;1.00;;;;;;5076556;28;20461;-64
2022/02/21 10:47:15;;;;;;;12.83;3.80;;;4.90;1.00;;;;;;5076107;28;20961;-64
2022/02/21 10:49:50;;;;;;;7.93;2.73;;;4.90;1.00;;;;;;5062908;28;20854;-64
2022/02/21 10:52:20;;;;;;;13.20;4.50;;;4.80;1.00;;;;;;5079727;28;20772;-62
2022/02/21 10:54:48;;;;;;;11.70;4.23;;;4.70;1.00;;;;;;5078182;28;20815;-59
2022/02/21 10:57:18;;;;;;;9.63;3.10;;;4.60;1.00;;;;;;5078820;28;20996;-60
2022/02/21 10:59:47;;;;;;;11.20;3.13;;;4.30;1.00;;;;;;5079421;28;20806;-62
2022/02/21 11:02:16;;;;;;;13.83;3.50;;;4.20;1.00;;;;;;5079084;28;20472;-62
2022/02/21 11:04:47;;;;;;;7.93;2.77;;;4.10;1.00;;;;;;5079351;28;20469;-62
2022/02/21 11:07:15;;;;;;;8.63;2.60;;;4.10;1.00;;;;;;5079321;28;20570;-61
2022/02/21 11:09:44;;;;;;;13.70;3.30;;;4.00;99.90;;;;;;5080238;28;20461;-62
2022/02/21 11:12:13;;;;;;;7.77;2.83;;;4.00;99.90;;;;;;5078807;28;20472;-61
2022/02/21 11:14:40;;;;;;;7.30;2.97;;;4.00;99.90;;;;;;5079415;28;20941;-63
2022/02/21 11:17:10;;;;;;;7.80;2.87;;;3.90;1.00;;;;;;5078858;28;20497;-58
2022/02/21 11:19:39;;;;;;;5.37;2.83;;;3.90;1.00;;;;;;5079509;28;20496;-62
2022/02/21 11:22:08;;;;;;;9.80;3.33;;;3.90;99.90;;;;;;5077957;28;20469;-62
2022/02/21 11:24:39;;;;;;;7.07;3.60;;;3.80;99.90;;;;;;5079412;28;20936;-63
2022/02/21 11:27:19;;;;;;;9.93;3.43;;;3.80;1.00;;;;;;5078683;28;20550;-61
2022/02/21 11:29:55;;;;;;;16.90;3.60;;;3.80;99.90;;;;;;5079632;28;20518;-62
2022/02/21 11:32:23;;;;;;;7.27;4.30;;;3.80;99.90;;;;;;5078060;28;20469;-62
2022/02/21 11:35:11;;;;;;;14.70;4.00;;;3.90;19.20;;;;;;5079367;28;20468;-62
2022/02/21 11:37:40;;;;;;;9.83;3.80;;;3.90;1.00;;;;;;5078828;28;20547;-62
2022/02/21 11:40:08;;;;;;;10.70;4.23;;;4.00;44.30;;;;;;5079195;28;20901;-62
2022/02/21 11:42:38;;;;;;;5.57;3.30;;;4.00;1.00;;;;;;5078098;28;20465;-63
2022/02/21 11:45:07;;;;;;;9.30;4.10;;;4.00;99.90;;;;;;5078972;28;20436;-61
2022/02/21 11:47:37;;;;;;;5.33;3.80;;;4.00;82.60;;;;;;5078881;28;20461;-60
2022/02/21 11:50:08;;;;;;;10.27;3.80;;;4.00;1.00;;;;;;5078801;28;20457;-61
2022/02/21 11:52:37;;;;;;;7.17;3.93;;;4.10;99.90;;;;;;5078174;28;20461;-62
2022/02/21 11:55:43;;;;;;;10.77;4.13;;;4.10;1.00;;;;;;5078526;28;20461;-61
2022/02/21 11:58:43;;;;;;;9.87;5.07;;;4.20;99.90;;;;;;5078076;28;20489;-62
2022/02/21 12:01:20;;;;;;;13.93;4.30;;;4.20;1.00;;;;;;5077265;28;20489;-60
2022/02/21 12:04:13;;;;;;;9.57;4.00;;;4.20;1.00;;;;;;5077192;28;20468;-62
2022/02/21 12:06:56;;;;;;;10.10;3.77;;;4.20;1.00;;;;;;5077985;28;20454;-61
2022/02/21 12:09:28;;;;;;;10.07;3.50;;;4.20;99.90;;;;;;5078065;28;20800;-61
2022/02/21 12:15:17;;;;;;;8.27;3.37;;;4.20;1.00;;;;;;5093480;27;20531;-61
2022/02/21 12:17:46;;;;;;;11.33;5.07;;;4.10;99.90;;;;;;5092011;28;20497;-61
2022/02/21 12:20:33;;;;;;;6.80;3.20;;;4.20;1.00;;;;;;5089088;28;20439;-61
2022/02/21 12:23:19;;;;;;;4.90;3.33;;;4.20;99.90;;;;;;5088575;28;20453;-60
2022/02/21 12:26:19;;;;;;;7.97;3.10;;;4.10;99.90;;;;;;5090127;28;20912;-62
2022/02/21 12:29:01;;;;;;;10.63;3.80;;;4.10;99.90;;;;;;5093137;28;20461;-61
2022/02/21 12:31:29;;;;;;;6.53;3.87;;;4.10;99.90;;;;;;5093521;28;20509;-62
2022/02/21 12:33:58;;;;;;;7.80;5.20;;;4.10;1.00;;;;;;5093779;28;20492;-62
2022/02/21 12:36:33;;;;;;;7.77;4.30;;;4.10;30.80;;;;;;5093652;28;20825;-63
2022/02/21 12:39:00;;;;;;;8.00;5.83;;;4.10;99.90;;;;;;5093385;28;20471;-62
2022/02/21 12:41:35;;;;;;;11.53;4.67;;;4.10;99.90;;;;;;5093236;28;20460;-61
2022/02/21 12:44:03;;;;;;;17.27;11.00;;;4.10;99.90;;;;;;5093933;28;20881;-62
2022/02/21 12:46:36;;;;;;;11.90;6.30;;;4.10;99.90;;;;;;5092912;28;20559;-62
2022/02/21 12:49:07;;;;;;;13.20;6.50;;;4.10;99.90;;;;;;5093280;28;20435;-61
2022/02/21 12:51:36;;;;;;;8.97;5.63;;;4.10;99.90;;;;;;5093745;28;20516;-62
2022/02/21 12:54:06;;;;;;;10.07;5.97;;;4.20;99.90;;;;;;5093204;28;20789;-63
2022/02/21 12:56:46;;;;;;;8.57;4.20;;;4.30;99.90;;;;;;5090849;28;20468;-62
2022/02/21 12:59:14;;;;;;;10.83;4.93;;;4.40;99.90;;;;;;5093641;28;20460;-61
2022/02/21 13:01:41;;;;;;;10.87;5.17;;;4.40;99.90;;;;;;5092905;28;20467;-59
2022/02/21 13:04:09;;;;;;;12.00;7.70;;;4.40;99.90;;;;;;5093131;28;20521;-61
2022/02/21 13:06:37;;;;;;;7.77;5.17;;;4.50;99.90;;;;;;5092925;28;20468;-62
2022/02/21 13:09:06;;;;;;;10.77;6.33;;;4.50;99.90;;;;;;5092885;28;20461;-61
2022/02/21 13:11:35;;;;;;;8.07;4.30;;;4.50;99.90;;;;;;5093125;28;20736;-60